Time;durP1;ratioP1;P1;durP2;ratioP2;P2;SDS_P1;SDS_P2;PMS_P1;PMS_P2;Temp;Humidity;BMP_temperature;BMP_pressure;BME280_temperature;BME280_humidity;BME280_pressure;Samples;Min_cycle;Max_cycle;Signal;HPM_P1;HPM_P2
2021/07/21 00:00:47;;;;;;;12.57;10.48;;;;;;;20.42;64.06;95967.16;5035405;28;20205;-86
2021/07/21 00:03:15;;;;;;;12.77;10.93;;;;;;;20.42;64.55;95964.56;5035058;28;20260;-86
2021/07/21 00:05:42;;;;;;;11.32;10.23;;;;;;;20.41;64.08;95967.41;5034811;28;20281;-86
2021/07/21 00:08:09;;;;;;;11.90;10.63;;;;;;;20.38;65.37;95966.06;5035373;28;20288;-86
2021/07/21 00:10:36;;;;;;;12.65;10.65;;;;;;;20.35;65.54;95969.91;5034904;28;20216;-86
2021/07/21 00:15:57;;;;;;;12.23;10.93;;;;;;;20.43;64.65;95955.69;5035977;28;20202;-86
2021/07/21 00:18:29;;;;;;;11.73;10.60;;;;;;;20.46;64.46;95960.47;5036283;28;20423;-86
2021/07/21 00:20:56;;;;;;;11.90;10.68;;;;;;;20.42;64.53;95953.28;5035065;28;20554;-86
2021/07/21 00:23:22;;;;;;;10.95;9.85;;;;;;;20.39;64.97;95959.00;5034997;28;20244;-86
2021/07/21 00:25:49;;;;;;;12.35;11.02;;;;;;;20.33;64.89;95958.84;5035533;28;20224;-86
2021/07/21 00:28:17;;;;;;;11.43;10.32;;;;;;;20.30;65.66;95959.31;5035437;28;20555;-85
2021/07/21 00:30:44;;;;;;;12.32;11.02;;;;;;;20.33;64.85;95953.63;5036159;28;20252;-86
2021/07/21 00:33:18;;;;;;;13.00;11.55;;;;;;;20.29;65.52;95962.94;5035313;28;20229;-86
2021/07/21 00:35:53;;;;;;;12.57;10.95;;;;;;;20.29;65.29;95959.53;5035307;28;20199;-87
2021/07/21 00:38:19;;;;;;;11.32;10.23;;;;;;;20.17;65.49;95956.94;5035083;28;20210;-86
2021/07/21 00:40:46;;;;;;;11.25;10.15;;;;;;;20.12;66.06;95958.63;5035913;28;20194;-85
2021/07/21 00:43:12;;;;;;;11.40;10.30;;;;;;;20.08;65.87;95965.31;5034509;28;20300;-85
2021/07/21 00:45:39;;;;;;;11.52;10.30;;;;;;;20.14;65.74;95960.00;5035103;28;20203;-86
2021/07/21 00:48:06;;;;;;;11.93;10.80;;;;;;;20.12;65.91;95959.41;5034926;28;20580;-86
2021/07/21 00:50:33;;;;;;;13.43;10.43;;;;;;;20.16;65.57;95957.97;5034450;28;20289;-86
2021/07/21 00:53:01;;;;;;;10.90;9.88;;;;;;;20.10;65.80;95964.06;5034367;28;20222;-86
2021/07/21 00:55:28;;;;;;;11.73;10.52;;;;;;;20.10;65.50;95963.28;5034061;28;20680;-86
2021/07/21 00:57:56;;;;;;;12.18;11.00;;;;;;;20.05;65.74;95957.94;5034185;28;20206;-87
2021/07/21 01:00:23;;;;;;;11.77;10.68;;;;;;;19.83;66.70;95958.47;5034403;28;20194;-86
2021/07/21 01:02:51;;;;;;;11.77;10.57;;;;;;;19.80;66.88;95961.56;5034540;28;20593;-86
2021/07/21 01:05:21;;;;;;;11.48;10.38;;;;;;;19.72;66.79;95961.88;5034320;28;20682;-86
2021/07/21 01:07:49;;;;;;;11.93;10.73;;;;;;;19.79;66.68;95959.16;5034372;28;20206;-86
2021/07/21 01:10:19;;;;;;;11.77;10.57;;;;;;;19.82;66.44;95956.88;5035314;28;20210;-86
2021/07/21 01:12:52;;;;;;;11.63;10.43;;;;;;;19.81;67.44;95960.53;5035616;28;20228;-86
2021/07/21 01:15:20;;;;;;;11.07;9.98;;;;;;;19.85;66.99;95963.47;5036302;28;20633;-85
2021/07/21 01:17:53;;;;;;;13.43;9.98;;;;;;;19.88;66.40;95966.44;5034708;28;20209;-85
2021/07/21 01:20:46;;;;;;;12.13;10.73;;;;;;;19.94;66.21;95962.13;5036122;28;20191;-86
2021/07/21 01:23:23;;;;;;;11.05;9.88;;;;;;;19.86;66.63;95965.06;5035958;28;20279;-85
2021/07/21 01:26:00;;;;;;;14.25;10.52;;;;;;;19.75;66.56;95960.63;5036268;28;20206;-86
2021/07/21 01:28:29;;;;;;;10.85;9.82;;;;;;;19.75;66.26;95964.03;5036367;28;20202;-84
2021/07/21 01:30:58;;;;;;;11.45;10.15;;;;;;;19.66;66.76;95958.31;5035234;28;20198;-85
2021/07/21 01:33:26;;;;;;;11.77;10.60;;;;;;;19.58;67.03;95963.88;5034220;28;20256;-85
2021/07/21 01:35:56;;;;;;;11.30;10.20;;;;;;;19.56;66.89;95962.50;5034323;28;20201;-84
2021/07/21 01:38:28;;;;;;;11.32;10.00;;;;;;;19.58;66.82;95956.06;5035272;28;20201;-84
2021/07/21 01:40:57;;;;;;;10.75;9.60;;;;;;;19.64;66.82;95965.59;5035403;28;20202;-84
2021/07/21 01:43:30;;;;;;;10.15;9.18;;;;;;;19.67;66.90;95959.13;5035515;28;20226;-86
2021/07/21 01:45:59;;;;;;;11.27;10.07;;;;;;;19.66;66.44;95949.69;5034474;28;20206;-84
2021/07/21 01:49:00;;;;;;;;;;;;;;;;;;;;;
2021/07/21 01:51:30;;;;;;;10.85;9.85;;;;;;;19.66;65.98;95952.31;5034085;28;20209;-87
2021/07/21 01:53:57;;;;;;;10.85;9.75;;;;;;;19.65;66.01;95951.50;5033916;28;20230;-86
2021/07/21 01:56:25;;;;;;;11.80;10.05;;;;;;;19.58;66.89;95955.25;5033997;28;20746;-86
2021/07/21 01:58:55;;;;;;;9.93;8.93;;;;;;;19.48;67.21;95957.56;5033740;28;20202;-85
2021/07/21 02:01:24;;;;;;;12.30;9.82;;;;;;;19.49;66.90;95957.34;5033995;28;20209;-86
2021/07/21 02:03:52;;;;;;;10.05;8.93;;;;;;;19.46;66.80;95954.38;5034132;28;20212;-87
2021/07/21 02:06:19;;;;;;;11.05;9.90;;;;;;;19.42;66.57;95956.66;5033933;28;20201;-86
2021/07/21 02:08:47;;;;;;;10.73;9.20;;;;;;;19.35;66.81;95953.34;5034126;28;20240;-86
2021/07/21 02:11:13;;;;;;;13.20;10.38;;;;;;;19.27;67.04;95949.22;5033848;28;20206;-86
2021/07/21 02:13:40;;;;;;;10.43;9.32;;;;;;;19.24;67.11;95948.88;5034876;28;20777;-86
2021/07/21 02:16:08;;;;;;;10.75;9.75;;;;;;;19.15;67.84;95945.78;5034552;28;20213;-86
2021/07/21 02:18:35;;;;;;;11.65;9.70;;;;;;;19.19;67.52;95946.13;5034609;28;20208;-87
2021/07/21 02:21:04;;;;;;;10.45;9.43;;;;;;;19.23;67.13;95947.28;5034236;28;20202;-86
2021/07/21 02:23:31;;;;;;;12.10;9.75;;;;;;;19.16;67.36;95938.72;5034105;28;20226;-86
2021/07/21 02:25:59;;;;;;;11.02;9.93;;;;;;;19.22;67.35;95933.44;5034679;28;20202;-86
2021/07/21 02:28:26;;;;;;;12.20;10.43;;;;;;;19.19;67.61;95944.31;5034353;28;20206;-86
2021/07/21 02:30:55;;;;;;;11.45;10.23;;;;;;;19.21;67.25;95944.91;5033585;28;20206;-86
2021/07/21 02:33:26;;;;;;;11.38;10.20;;;;;;;19.08;67.96;95945.03;5034313;28;20229;-86
2021/07/21 02:35:54;;;;;;;11.15;9.50;;;;;;;19.10;67.72;95942.22;5034712;28;20289;-86
2021/07/21 02:38:21;;;;;;;10.13;9.23;;;;;;;19.07;68.27;95945.25;5034219;28;20293;-86
2021/07/21 02:40:47;;;;;;;10.50;9.50;;;;;;;18.98;68.35;95948.19;5034701;28;20579;-86
2021/07/21 02:43:14;;;;;;;11.52;10.32;;;;;;;18.94;68.73;95943.63;5034189;28;20221;-85
2021/07/21 02:45:40;;;;;;;13.30;9.82;;;;;;;18.83;69.58;95942.56;5035930;28;20430;-86
2021/07/21 02:48:08;;;;;;;10.85;9.70;;;;;;;18.83;69.08;95942.56;5038177;28;20229;-87
2021/07/21 02:50:36;;;;;;;14.02;9.27;;;;;;;18.81;69.28;95952.41;5038990;28;20202;-86
2021/07/21 02:53:06;;;;;;;11.85;10.20;;;;;;;18.85;68.90;95943.16;5038759;28;20229;-85
2021/07/21 02:55:36;;;;;;;10.68;9.57;;;;;;;18.86;68.98;95949.13;5039181;28;20221;-84
2021/07/21 02:58:07;;;;;;;10.60;9.52;;;;;;;18.76;69.06;95954.88;5037814;28;20202;-84
2021/07/21 03:00:35;;;;;;;12.05;10.05;;;;;;;18.74;69.12;95963.94;5038923;28;20720;-87
2021/07/21 03:03:06;;;;;;;13.18;10.68;;;;;;;18.74;70.19;95951.69;5037649;28;20229;-86
2021/07/21 03:05:34;;;;;;;12.30;10.32;;;;;;;18.82;69.51;95956.63;5037603;28;20194;-86
2021/07/21 03:08:05;;;;;;;11.50;10.32;;;;;;;18.85;69.69;95952.78;5037422;28;20669;-86
2021/07/21 03:10:32;;;;;;;10.82;9.73;;;;;;;18.81;69.95;95952.41;5037444;28;20238;-86
2021/07/21 03:13:40;;;;;;;10.88;9.77;;;;;;;18.85;69.34;95958.81;5038059;28;20254;-86
2021/07/21 03:16:07;;;;;;;11.00;9.90;;;;;;;18.92;68.93;95966.53;4999155;28;20226;-86
2021/07/21 03:18:34;;;;;;;10.93;9.77;;;;;;;19.00;68.48;95962.84;5037563;28;20245;-86
2021/07/21 03:21:01;;;;;;;12.88;10.07;;;;;;;19.05;67.86;95963.00;5037571;28;20433;-86
2021/07/21 03:23:30;;;;;;;12.90;10.27;;;;;;;18.98;68.29;95968.28;5037993;28;20285;-86
2021/07/21 03:26:01;;;;;;;10.95;9.85;;;;;;;19.02;68.00;95968.63;5038143;28;20285;-87
2021/07/21 03:28:29;;;;;;;11.30;10.13;;;;;;;19.07;67.56;95968.75;5038678;28;20763;-86
2021/07/21 03:30:56;;;;;;;10.55;9.55;;;;;;;19.07;67.03;95971.38;5037640;28;20289;-87
2021/07/21 03:33:27;;;;;;;13.93;9.82;;;;;;;19.05;66.88;95971.59;5037670;28;20229;-86
2021/07/21 03:35:59;;;;;;;11.23;9.80;;;;;;;19.07;66.69;95966.94;5038031;28;20226;-87
2021/07/21 03:38:27;;;;;;;11.63;10.05;;;;;;;19.04;66.99;95974.44;5037899;28;20677;-86
2021/07/21 03:40:56;;;;;;;10.95;9.85;;;;;;;19.07;66.69;95972.16;5037368;28;20228;-85
2021/07/21 03:43:43;;;;;;;11.82;9.68;;;;;;;19.06;67.12;95972.38;5039609;28;20220;-84
2021/07/21 03:46:20;;;;;;;11.07;9.30;;;;;;;19.05;66.51;95982.03;5039729;28;20208;-86
2021/07/21 03:48:54;;;;;;;10.63;9.60;;;;;;;19.12;66.26;95980.13;5039838;28;20206;-86
2021/07/21 03:51:21;;;;;;;12.13;10.25;;;;;;;19.08;65.98;95978.97;5040027;28;20260;-86
2021/07/21 03:53:47;;;;;;;10.95;9.82;;;;;;;19.02;66.46;95976.47;5040283;28;20230;-86
2021/07/21 03:56:22;;;;;;;10.95;9.93;;;;;;;18.85;67.26;95987.50;5038300;28;20222;-86
2021/07/21 03:59:17;;;;;;;16.88;9.65;;;;;;;18.78;67.46;95981.56;5039439;28;20205;-86
2021/07/21 04:01:59;;;;;;;10.27;9.27;;;;;;;18.78;67.45;95978.94;5038508;28;20203;-86
2021/07/21 04:04:59;;;;;;;11.57;9.90;;;;;;;18.67;68.05;95984.06;5019603;28;20202;-86
2021/07/21 04:07:45;;;;;;;10.23;9.15;;;;;;;18.67;67.63;95981.47;5031533;28;20213;-88
2021/07/21 04:10:36;;;;;;;9.35;8.45;;;;;;;18.77;67.68;95985.16;5039907;28;20561;-86
2021/07/21 04:13:25;;;;;;;10.77;9.63;;;;;;;18.79;67.46;95990.97;5036641;28;20222;-88
2021/07/21 04:16:17;;;;;;;10.50;9.52;;;;;;;18.78;67.37;95984.16;5033747;28;20911;-86
2021/07/21 04:18:58;;;;;;;10.45;9.43;;;;;;;18.79;66.67;95985.75;5040929;28;20206;-87
2021/07/21 04:24:38;;;;;;;11.10;9.98;;;;;;;18.66;67.39;95982.50;4959623;29;20193;-87
2021/07/21 04:27:17;;;;;;;11.05;9.88;;;;;;;18.62;67.63;95988.16;4958412;29;20200;-87
2021/07/21 04:29:47;;;;;;;10.43;9.43;;;;;;;18.65;67.63;95992.13;4958754;29;20217;-85
2021/07/21 04:32:14;;;;;;;10.73;9.43;;;;;;;18.74;67.19;95993.44;4956567;29;20221;-86
2021/07/21 04:34:45;;;;;;;10.25;9.18;;;;;;;18.83;67.47;96001.78;4955788;29;20256;-85
2021/07/21 04:37:24;;;;;;;10.18;9.20;;;;;;;18.97;66.81;95998.00;5038047;28;20289;-87
2021/07/21 04:39:52;;;;;;;10.35;9.35;;;;;;;19.05;66.23;95997.69;5025129;28;20208;-85
2021/07/21 04:42:19;;;;;;;13.80;10.75;;;;;;;19.09;65.90;96001.47;5036193;28;20237;-86
2021/07/21 04:44:47;;;;;;;12.90;9.90;;;;;;;19.09;66.05;96005.88;5037677;28;20210;-85
2021/07/21 04:47:15;;;;;;;13.55;10.30;;;;;;;19.13;66.19;96005.22;5037394;28;20200;-85
2021/07/21 04:49:43;;;;;;;30.10;26.88;;;;;;;19.22;66.12;96000.53;5036964;28;20893;-84
2021/07/21 04:52:13;;;;;;;33.78;29.17;;;;;;;19.32;65.79;96000.78;5036941;28;20309;-85
2021/07/21 04:54:40;;;;;;;20.48;15.75;;;;;;;19.40;65.82;96004.91;5037302;28;20222;-84
2021/07/21 04:57:10;;;;;;;11.15;9.80;;;;;;;19.43;65.79;96004.47;5037002;28;20206;-84
2021/07/21 04:59:37;;;;;;;11.05;9.95;;;;;;;19.44;65.79;96006.84;5036745;28;20674;-85
2021/07/21 05:02:05;;;;;;;11.85;10.50;;;;;;;19.52;65.69;96016.22;5036028;28;20218;-84
2021/07/21 05:04:33;;;;;;;13.55;10.27;;;;;;;19.60;65.39;96015.91;5036417;28;20214;-84
2021/07/21 05:07:00;;;;;;;12.45;10.40;;;;;;;19.67;64.59;96016.59;5036271;28;20209;-84
2021/07/21 05:09:26;;;;;;;12.07;10.73;;;;;;;19.78;64.69;96025.50;5036091;28;20197;-85
2021/07/21 05:11:52;;;;;;;11.55;10.35;;;;;;;19.81;64.55;96017.22;5036983;28;20233;-86
2021/07/21 05:14:19;;;;;;;11.63;10.10;;;;;;;19.81;65.48;96023.25;5036350;28;20202;-85
2021/07/21 05:16:46;;;;;;;13.45;10.25;;;;;;;19.80;65.55;96024.28;5034896;28;20226;-85
2021/07/21 05:19:13;;;;;;;13.63;10.20;;;;;;;19.90;65.27;96026.34;5035590;28;20202;-86
2021/07/21 05:21:40;;;;;;;11.20;10.10;;;;;;;19.95;64.20;96029.06;5034984;28;20462;-86
2021/07/21 05:24:06;;;;;;;11.32;10.20;;;;;;;20.01;63.96;96026.34;5034937;28;20209;-88
2021/07/21 05:26:33;;;;;;;12.02;10.35;;;;;;;19.97;64.38;96033.06;5035093;28;20729;-87
2021/07/21 05:29:02;;;;;;;11.23;10.13;;;;;;;19.96;64.47;96028.84;5035134;28;20208;-88
2021/07/21 05:31:29;;;;;;;11.07;9.40;;;;;;;20.05;64.13;96026.69;5034183;28;20206;-87
2021/07/21 05:33:55;;;;;;;10.82;9.73;;;;;;;20.13;63.79;96020.34;5034954;28;20740;-85
2021/07/21 05:36:23;;;;;;;13.35;10.73;;;;;;;20.19;63.60;96032.53;5034511;28;20221;-87
2021/07/21 05:38:50;;;;;;;11.27;10.25;;;;;;;20.22;63.46;96034.69;5034021;28;20209;-87
2021/07/21 05:41:16;;;;;;;17.50;10.43;;;;;;;20.29;63.08;96041.41;5033281;28;20209;-87
2021/07/21 05:43:43;;;;;;;11.52;10.40;;;;;;;20.26;62.85;96039.25;5034339;28;20276;-87
2021/07/21 05:46:09;;;;;;;11.68;10.05;;;;;;;20.37;62.82;96039.53;5034286;28;20204;-87
2021/07/21 05:48:36;;;;;;;12.98;10.32;;;;;;;20.44;62.37;96042.81;5034499;28;20199;-87
2021/07/21 05:51:02;;;;;;;13.98;10.48;;;;;;;20.41;62.51;96041.44;5033815;28;20210;-88
2021/07/21 05:53:31;;;;;;;11.52;10.25;;;;;;;20.40;63.22;96041.69;5034678;28;20230;-87
2021/07/21 05:55:57;;;;;;;10.95;9.85;;;;;;;20.44;63.71;96045.41;5034177;28;20228;-87
2021/07/21 05:58:24;;;;;;;11.23;9.95;;;;;;;20.54;63.18;96045.66;5034731;28;20216;-87
2021/07/21 06:00:50;;;;;;;10.95;9.85;;;;;;;20.66;62.76;96046.44;5034828;28;20201;-88
2021/07/21 06:03:34;;;;;;;11.88;10.23;;;;;;;20.73;62.21;96047.16;5034128;28;20768;-87
2021/07/21 06:06:01;;;;;;;12.05;10.02;;;;;;;20.80;61.71;96050.41;5034173;28;20212;-87
2021/07/21 06:08:28;;;;;;;12.85;10.88;;;;;;;20.81;62.07;96057.25;5035296;28;20205;-87
2021/07/21 06:10:56;;;;;;;12.20;10.18;;;;;;;20.89;62.42;96056.13;5037445;28;20878;-87
2021/07/21 06:13:25;;;;;;;11.75;10.07;;;;;;;20.95;61.65;96049.97;5037597;28;20226;-87
2021/07/21 06:15:51;;;;;;;18.75;10.63;;;;;;;21.00;61.37;96056.09;5037938;28;20605;-88
2021/07/21 06:18:20;;;;;;;11.80;10.60;;;;;;;21.06;61.90;96058.81;5037202;28;20194;-86
2021/07/21 06:20:47;;;;;;;17.67;10.10;;;;;;;21.15;62.24;96063.50;5037275;28;20198;-86
2021/07/21 06:23:13;;;;;;;13.60;10.25;;;;;;;21.26;62.21;96075.00;5037026;28;20249;-87
2021/07/21 06:25:40;;;;;;;12.80;10.35;;;;;;;21.36;61.91;96075.19;5037320;28;20692;-86
2021/07/21 06:28:11;;;;;;;12.45;10.80;;;;;;;21.30;61.04;96071.69;5037310;28;20666;-86
2021/07/21 06:30:38;;;;;;;12.45;11.18;;;;;;;21.34;60.58;96070.19;5037347;28;20206;-86
2021/07/21 06:33:11;;;;;;;13.05;11.38;;;;;;;21.35;60.59;96077.03;5034672;28;20222;-86
2021/07/21 06:35:40;;;;;;;12.48;11.15;;;;;;;21.37;61.65;96074.16;5033367;28;20233;-86
2021/07/21 06:38:06;;;;;;;14.75;10.48;;;;;;;21.43;62.41;96081.09;5034160;28;20751;-86
2021/07/21 06:40:33;;;;;;;15.00;11.25;;;;;;;21.41;61.09;96074.50;5033623;28;20256;-86
2021/07/21 06:43:00;;;;;;;12.50;11.20;;;;;;;21.52;60.47;96086.78;5036131;28;20265;-86
2021/07/21 06:45:28;;;;;;;14.05;11.00;;;;;;;21.63;59.67;96081.50;5036460;28;20202;-87
2021/07/21 06:47:54;;;;;;;13.60;12.10;;;;;;;21.59;59.63;96077.72;5037010;28;20201;-86
2021/07/21 06:50:27;;;;;;;12.55;10.95;;;;;;;21.62;59.71;96081.72;5037239;28;20194;-86
2021/07/21 06:52:53;;;;;;;12.57;11.27;;;;;;;21.60;61.80;96091.63;5036370;28;20313;-86
2021/07/21 06:55:20;;;;;;;12.32;11.10;;;;;;;21.68;61.63;96088.66;5037314;28;20226;-86
2021/07/21 06:57:47;;;;;;;11.93;10.68;;;;;;;21.82;60.62;96091.78;5035839;28;20213;-86
2021/07/21 07:00:14;;;;;;;14.73;10.48;;;;;;;21.93;60.31;96090.97;5035300;28;20229;-86
2021/07/21 07:02:42;;;;;;;11.73;10.52;;;;;;;22.07;59.25;96092.28;5034952;28;20268;-86
2021/07/21 07:05:09;;;;;;;12.70;10.90;;;;;;;22.13;59.46;96091.31;5033996;28;20197;-87
2021/07/21 07:07:36;;;;;;;16.27;11.13;;;;;;;22.16;58.41;96093.47;5034868;28;20210;-86
2021/07/21 07:10:04;;;;;;;13.23;10.90;;;;;;;22.20;58.02;96094.59;5032262;28;20217;-85
2021/07/21 07:12:38;;;;;;;14.30;11.13;;;;;;;22.26;58.57;96095.47;5031830;28;20223;-87
2021/07/21 07:15:06;;;;;;;12.82;11.23;;;;;;;22.12;57.59;96099.44;5032250;28;20293;-86
2021/07/21 07:17:32;;;;;;;12.27;10.90;;;;;;;22.19;58.08;96098.25;5031718;28;20202;-87
2021/07/21 07:20:00;;;;;;;11.35;10.15;;;;;;;22.35;58.42;96099.28;5031409;28;20202;-86
2021/07/21 07:22:27;;;;;;;13.27;11.88;;;;;;;22.27;57.24;96097.06;5032015;28;20218;-87
2021/07/21 07:24:56;;;;;;;12.55;11.25;;;;;;;22.23;58.29;96099.38;5031843;28;20217;-86
2021/07/21 07:27:22;;;;;;;13.30;11.27;;;;;;;22.30;59.02;96097.41;5031382;28;20229;-87
2021/07/21 07:29:49;;;;;;;17.60;11.25;;;;;;;22.47;58.82;96102.66;5031818;28;20202;-86
2021/07/21 07:32:15;;;;;;;14.35;11.07;;;;;;;22.56;58.70;96098.59;5031882;28;20854;-86
2021/07/21 07:34:42;;;;;;;13.65;10.95;;;;;;;22.71;58.05;96095.41;5037084;28;20327;-84
2021/07/21 07:37:10;;;;;;;14.32;10.95;;;;;;;22.80;57.14;96094.00;5037323;28;20592;-85
2021/07/21 07:39:38;;;;;;;13.30;10.30;;;;;;;22.92;55.77;96094.69;5036904;28;20209;-84
2021/07/21 07:42:08;;;;;;;12.80;10.48;;;;;;;22.88;55.49;96092.81;5036018;28;20640;-85
2021/07/21 07:44:34;;;;;;;11.43;10.32;;;;;;;22.94;56.35;96095.25;5036654;28;20206;-84
2021/07/21 07:47:01;;;;;;;10.80;9.80;;;;;;;23.03;55.27;96085.94;5037419;28;20202;-86
2021/07/21 07:49:28;;;;;;;14.20;10.50;;;;;;;23.05;54.64;96090.94;5036136;28;20243;-85
2021/07/21 07:51:54;;;;;;;13.80;10.32;;;;;;;23.10;54.06;96080.47;5035937;28;20229;-84
2021/07/21 07:54:24;;;;;;;11.98;9.93;;;;;;;23.07;53.77;96084.41;5036246;28;20210;-85
2021/07/21 07:56:50;;;;;;;10.55;8.95;;;;;;;22.98;54.55;96077.97;5036188;28;20655;-85
2021/07/21 07:59:17;;;;;;;10.10;8.73;;;;;;;23.11;51.60;96078.66;5036824;28;20213;-85
2021/07/21 08:01:44;;;;;;;10.05;7.95;;;;;;;23.20;53.01;96072.75;5036255;28;20313;-86
2021/07/21 08:04:11;;;;;;;9.65;7.90;;;;;;;23.39;52.12;96083.75;5036133;28;20614;-85
2021/07/21 08:06:37;;;;;;;9.98;7.60;;;;;;;23.52;52.23;96079.97;5036313;28;20248;-86
2021/07/21 08:09:12;;;;;;;8.70;7.78;;;;;;;23.58;49.79;96076.38;5035611;28;20201;-86
2021/07/21 08:11:42;;;;;;;8.90;8.00;;;;;;;23.67;48.84;96070.41;5034251;28;20204;-85
2021/07/21 08:14:14;;;;;;;9.85;7.95;;;;;;;23.75;48.75;96077.88;5035696;28;20206;-84
2021/07/21 08:16:43;;;;;;;13.23;8.35;;;;;;;23.91;49.04;96078.81;5035108;28;20246;-85
2021/07/21 08:19:09;;;;;;;8.82;7.93;;;;;;;24.03;48.93;96083.94;5035478;28;20194;-84
2021/07/21 08:21:37;;;;;;;9.82;8.50;;;;;;;24.10;49.57;96084.53;5034069;28;20202;-85
2021/07/21 08:24:05;;;;;;;9.93;8.50;;;;;;;24.27;49.75;96082.59;5035307;28;20190;-85
2021/07/21 08:26:32;;;;;;;9.30;8.35;;;;;;;24.40;47.92;96078.78;5034571;28;20198;-84
2021/07/21 08:29:00;;;;;;;8.55;7.57;;;;;;;24.42;47.98;96074.84;5033852;28;20214;-85
2021/07/21 08:31:26;;;;;;;10.18;8.13;;;;;;;24.46;47.49;96080.38;5034118;28;20213;-84
2021/07/21 08:33:53;;;;;;;8.50;7.70;;;;;;;24.53;47.67;96085.44;5034412;28;20293;-85
2021/07/21 08:36:20;;;;;;;8.85;8.05;;;;;;;24.66;48.01;96082.38;5033942;28;20222;-84
2021/07/21 08:38:49;;;;;;;7.95;7.25;;;;;;;24.75;46.67;96086.13;5033783;28;20190;-85
2021/07/21 08:41:17;;;;;;;8.40;7.60;;;;;;;24.76;46.78;96085.88;5033095;28;20293;-85
2021/07/21 08:43:44;;;;;;;9.48;7.55;;;;;;;24.84;47.06;96079.34;5032463;28;20713;-84
2021/07/21 08:46:12;;;;;;;10.48;7.82;;;;;;;24.98;46.21;96079.72;5033083;28;20194;-85
2021/07/21 08:48:38;;;;;;;8.73;7.82;;;;;;;24.94;46.21;96081.25;5033026;28;20209;-85
2021/07/21 08:51:06;;;;;;;8.32;7.55;;;;;;;25.04;46.34;96082.13;5032643;28;20198;-85
2021/07/21 08:53:39;;;;;;;10.40;8.27;;;;;;;24.92;44.65;96084.13;5032807;28;20646;-85
2021/07/21 08:56:06;;;;;;;8.38;7.57;;;;;;;25.07;46.22;96086.88;5032622;28;20313;-85
2021/07/21 08:58:33;;;;;;;10.77;8.00;;;;;;;25.14;46.09;96089.31;5033761;28;20289;-85
2021/07/21 09:00:59;;;;;;;8.85;7.95;;;;;;;25.34;45.79;96088.59;5032921;28;20201;-86
2021/07/21 09:03:28;;;;;;;10.98;7.80;;;;;;;25.45;44.91;96074.41;5032299;28;20257;-85
2021/07/21 09:05:58;;;;;;;9.00;8.00;;;;;;;25.55;45.25;96086.84;5033185;28;20194;-86
2021/07/21 09:08:35;;;;;;;9.15;7.43;;;;;;;25.42;43.40;96083.63;5033617;28;20206;-85
2021/07/21 09:11:04;;;;;;;8.45;7.65;;;;;;;25.58;44.20;96088.97;5031750;28;20684;-86
2021/07/21 09:13:34;;;;;;;8.85;7.82;;;;;;;25.61;44.63;96086.59;5032756;28;20268;-85
2021/07/21 09:16:01;;;;;;;8.65;7.82;;;;;;;25.65;43.56;96086.91;5032194;28;20226;-85
2021/07/21 09:18:31;;;;;;;9.60;7.43;;;;;;;25.71;43.58;96089.31;5032372;28;20695;-84
2021/07/21 09:21:09;;;;;;;8.60;7.60;;;;;;;25.83;43.46;96089.06;5032453;28;20297;-85
2021/07/21 09:23:37;;;;;;;8.43;7.43;;;;;;;25.68;43.34;96083.75;5032718;28;20213;-85
2021/07/21 09:26:10;;;;;;;10.05;8.40;;;;;;;25.81;43.01;96089.31;5033064;28;20596;-85
2021/07/21 09:28:40;;;;;;;8.45;7.70;;;;;;;26.07;43.86;96089.38;5033606;28;20206;-85
2021/07/21 09:31:08;;;;;;;8.90;8.00;;;;;;;26.31;43.39;96093.13;5032371;28;20186;-86
2021/07/21 09:33:37;;;;;;;9.20;8.30;;;;;;;26.26;41.14;96092.31;5032650;28;20214;-84
2021/07/21 09:36:03;;;;;;;10.38;8.32;;;;;;;26.26;40.55;96087.81;5031932;28;20649;-85
2021/07/21 09:38:33;;;;;;;11.88;8.32;;;;;;;26.26;42.51;96093.09;5031814;28;20209;-85
2021/07/21 09:41:07;;;;;;;9.07;8.20;;;;;;;26.44;42.19;96091.81;5032554;28;20614;-85
2021/07/21 09:43:35;;;;;;;8.95;8.05;;;;;;;26.63;40.70;96084.94;5032162;28;20222;-85
2021/07/21 09:46:05;;;;;;;9.18;8.27;;;;;;;26.57;38.71;96088.63;5031902;28;20210;-85
2021/07/21 09:48:41;;;;;;;9.35;8.45;;;;;;;26.66;39.52;96087.06;5031828;28;20202;-85
2021/07/21 09:51:08;;;;;;;10.05;8.77;;;;;;;26.64;39.98;96089.16;5031300;28;20198;-85
2021/07/21 09:53:40;;;;;;;8.77;7.88;;;;;;;26.59;40.84;96081.22;5031384;28;20222;-85
2021/07/21 09:56:07;;;;;;;9.43;8.45;;;;;;;26.70;40.87;96082.03;5030355;28;20252;-85
2021/07/21 09:58:40;;;;;;;8.95;8.15;;;;;;;26.56;40.97;96084.41;5032094;28;20215;-85
2021/07/21 10:01:07;;;;;;;11.75;7.82;;;;;;;26.62;40.85;96079.91;5032327;28;20312;-86
2021/07/21 10:03:39;;;;;;;9.43;8.18;;;;;;;26.70;40.79;96082.03;5033013;28;20225;-85
2021/07/21 10:06:09;;;;;;;9.20;8.30;;;;;;;26.66;40.72;96075.69;5034515;28;20666;-85
2021/07/21 10:08:41;;;;;;;9.60;8.60;;;;;;;26.83;41.39;96076.19;5035611;28;20205;-86
2021/07/21 10:11:28;;;;;;;8.65;7.85;;;;;;;27.08;40.83;96070.88;5033913;28;20206;-86
2021/07/21 10:14:08;;;;;;;9.90;8.63;;;;;;;27.12;40.46;96082.53;5032727;28;20205;-85
2021/07/21 10:16:41;;;;;;;9.82;8.93;;;;;;;27.33;40.28;96077.13;5035132;28;20225;-85
2021/07/21 10:19:14;;;;;;;9.88;8.88;;;;;;;27.28;38.95;96074.53;5035604;28;20252;-85
2021/07/21 10:21:44;;;;;;;9.52;8.63;;;;;;;27.41;40.38;96071.31;5034081;28;20221;-87
2021/07/21 10:24:12;;;;;;;9.60;8.63;;;;;;;27.48;39.37;96067.31;5031991;28;20206;-85
2021/07/21 10:26:40;;;;;;;9.25;8.25;;;;;;;27.40;39.73;96067.88;5031057;28;20945;-85
2021/07/21 10:29:08;;;;;;;9.48;8.48;;;;;;;27.23;39.86;96066.59;5031381;28;20205;-85
2021/07/21 10:31:35;;;;;;;9.73;8.70;;;;;;;27.40;39.36;96075.00;5032093;28;20202;-87
2021/07/21 10:34:05;;;;;;;9.55;8.43;;;;;;;27.57;39.94;96067.53;5032723;28;20858;-86
2021/07/21 10:36:32;;;;;;;9.82;8.85;;;;;;;27.63;40.05;96060.38;5032423;28;20218;-86
2021/07/21 10:39:01;;;;;;;9.95;8.93;;;;;;;27.68;37.65;96058.50;5032694;28;20201;-87
2021/07/21 10:41:32;;;;;;;10.25;9.30;;;;;;;27.64;38.25;96061.97;5030903;28;20609;-87
2021/07/21 10:44:00;;;;;;;10.60;9.50;;;;;;;27.68;37.99;96055.88;5031484;28;20205;-86
2021/07/21 10:46:35;;;;;;;9.88;8.63;;;;;;;27.84;39.37;96057.34;5031184;28;20202;-87
2021/07/21 10:49:17;;;;;;;9.15;8.23;;;;;;;27.94;39.75;96058.34;5031024;28;20293;-86
2021/07/21 10:52:17;;;;;;;10.02;9.02;;;;;;;28.01;39.38;96053.53;5030908;28;20285;-87
2021/07/21 10:54:53;;;;;;;10.45;8.82;;;;;;;28.24;39.28;96060.81;5031137;28;20218;-87
2021/07/21 11:00:13;;;;;;;10.27;9.10;;;;;;;28.06;37.85;96054.31;5030473;28;20221;-86
2021/07/21 11:02:40;;;;;;;10.15;9.10;;;;;;;28.11;39.64;96054.25;5030311;28;20244;-86
2021/07/21 11:05:26;;;;;;;9.75;8.90;;;;;;;28.12;38.64;96055.84;5030732;28;20285;-87
2021/07/21 11:07:55;;;;;;;9.77;8.80;;;;;;;28.26;38.77;96053.41;5033976;28;20561;-87
2021/07/21 11:10:38;;;;;;;10.00;9.00;;;;;;;28.31;37.92;96060.50;5034306;28;20585;-87
2021/07/21 11:13:06;;;;;;;9.88;8.98;;;;;;;28.29;38.49;96060.00;5034253;28;20222;-87
2021/07/21 11:15:44;;;;;;;10.43;9.43;;;;;;;28.41;38.17;96055.13;5034501;28;20206;-87
2021/07/21 11:18:42;;;;;;;10.63;9.52;;;;;;;28.26;35.78;96056.03;5033435;28;20237;-86
2021/07/21 11:21:10;;;;;;;10.50;9.52;;;;;;;28.10;36.52;96052.66;5033394;28;20202;-87
2021/07/21 11:23:45;;;;;;;10.15;9.23;;;;;;;28.08;36.59;96049.53;5033384;28;20312;-87
2021/07/21 11:26:39;;;;;;;10.13;9.23;;;;;;;28.28;35.89;96050.47;5033189;28;20190;-87
2021/07/21 11:29:37;;;;;;;11.00;9.65;;;;;;;28.21;36.99;96042.03;5033695;28;20202;-87
2021/07/21 11:32:05;;;;;;;9.23;8.50;;;;;;;28.21;37.90;96050.00;5031674;28;20236;-86
2021/07/21 11:34:33;;;;;;;10.25;9.32;;;;;;;28.17;37.90;96047.84;5033625;28;20720;-87
2021/07/21 11:37:02;;;;;;;10.25;9.18;;;;;;;28.38;37.61;96050.38;5033693;28;20222;-87
2021/07/21 11:39:36;;;;;;;10.73;9.57;;;;;;;28.55;37.99;96045.47;5033747;28;20745;-87
2021/07/21 11:42:07;;;;;;;10.00;9.07;;;;;;;28.67;38.27;96045.84;5033185;28;20268;-87
2021/07/21 11:44:38;;;;;;;10.10;9.20;;;;;;;28.87;36.59;96036.94;5033114;28;20352;-86
2021/07/21 11:47:10;;;;;;;10.13;9.18;;;;;;;28.83;36.02;96046.56;5033030;28;20341;-87